sensor_id;sensor_type;location;lat;lon;timestamp;temperature;humidity
67748;HTU21D;54543;50.712;6.070;2023-03-14T00:01:23;11.30;76.55
67748;HTU21D;54543;50.712;6.070;2023-03-14T00:03:50;11.33;76.08
67748;HTU21D;54543;50.712;6.070;2023-03-14T00:06:16;11.37;76.11
67748;HTU21D;54543;50.712;6.070;2023-03-14T00:08:43;11.38;75.83
67748;HTU21D;54543;50.712;6.070;2023-03-14T00:11:11;11.37;76.25
67748;HTU21D;54543;50.712;6.070;2023-03-14T00:13:37;11.32;77.17
67748;HTU21D;54543;50.712;6.070;2023-03-14T00:16:08;11.25;77.54
67748;HTU21D;54543;50.712;6.070;2023-03-14T00:18:34;11.14;79.34
67748;HTU21D;54543;50.712;6.070;2023-03-14T00:21:01;10.97;83.31
67748;HTU21D;54543;50.712;6.070;2023-03-14T00:23:27;10.55;106.84
67748;HTU21D;54543;50.712;6.070;2023-03-14T00:25:53;9.94;96.43
67748;HTU21D;54543;50.712;6.070;2023-03-14T00:28:19;9.54;94.87
67748;HTU21D;54543;50.712;6.070;2023-03-14T00:30:44;9.20;94.52
67748;HTU21D;54543;50.712;6.070;2023-03-14T00:33:10;9.03;96.48
67748;HTU21D;54543;50.712;6.070;2023-03-14T00:35:35;8.92;97.81
67748;HTU21D;54543;50.712;6.070;2023-03-14T00:38:01;8.85;98.94
67748;HTU21D;54543;50.712;6.070;2023-03-14T00:40:26;8.82;98.65
67748;HTU21D;54543;50.712;6.070;2023-03-14T00:42:52;8.80;99.19
67748;HTU21D;54543;50.712;6.070;2023-03-14T00:45:17;8.78;99.19
67748;HTU21D;54543;50.712;6.070;2023-03-14T00:47:42;8.71;99.20
67748;HTU21D;54543;50.712;6.070;2023-03-14T00:50:11;8.67;99.26
67748;HTU21D;54543;50.712;6.070;2023-03-14T00:52:37;8.65;99.67
67748;HTU21D;54543;50.712;6.070;2023-03-14T00:55:03;8.62;99.75
67748;HTU21D;54543;50.712;6.070;2023-03-14T00:57:29;8.61;99.48
67748;HTU21D;54543;50.712;6.070;2023-03-14T00:59:54;8.62;99.55
67748;HTU21D;54543;50.712;6.070;2023-03-14T01:02:20;8.60;98.87
67748;HTU21D;54543;50.712;6.070;2023-03-14T01:04:47;8.62;98.80
67748;HTU21D;54543;50.712;6.070;2023-03-14T01:07:13;8.63;98.93
67748;HTU21D;54543;50.712;6.070;2023-03-14T01:09:39;8.65;98.99
67748;HTU21D;54543;50.712;6.070;2023-03-14T01:12:05;8.66;98.90
67748;HTU21D;54543;50.712;6.070;2023-03-14T01:14:30;8.67;98.71
67748;HTU21D;54543;50.712;6.070;2023-03-14T01:16:56;8.68;98.52
67748;HTU21D;54543;50.712;6.070;2023-03-14T01:19:27;8.66;97.94
67748;HTU21D;54543;50.712;6.070;2023-03-14T01:21:53;8.65;97.87
67748;HTU21D;54543;50.712;6.070;2023-03-14T01:24:18;8.63;98.22
67748;HTU21D;54543;50.712;6.070;2023-03-14T01:26:44;8.60;98.00
67748;HTU21D;54543;50.712;6.070;2023-03-14T01:29:09;8.60;97.78
67748;HTU21D;54543;50.712;6.070;2023-03-14T01:31:35;8.56;98.08
67748;HTU21D;54543;50.712;6.070;2023-03-14T01:34:00;8.55;97.87
67748;HTU21D;54543;50.712;6.070;2023-03-14T01:36:26;8.55;97.75
67748;HTU21D;54543;50.712;6.070;2023-03-14T01:38:51;8.56;97.87
67748;HTU21D;54543;50.712;6.070;2023-03-14T01:41:21;8.61;97.69
67748;HTU21D;54543;50.712;6.070;2023-03-14T01:43:48;8.61;97.91
67748;HTU21D;54543;50.712;6.070;2023-03-14T01:56:57;8.80;97.35
67748;HTU21D;54543;50.712;6.070;2023-03-14T01:59:24;8.85;96.99
67748;HTU21D;54543;50.712;6.070;2023-03-14T02:01:51;8.85;96.33
67748;HTU21D;54543;50.712;6.070;2023-03-14T02:04:17;8.86;95.92
67748;HTU21D;54543;50.712;6.070;2023-03-14T02:07:08;8.89;95.75
67748;HTU21D;54543;50.712;6.070;2023-03-14T02:09:36;8.93;95.49
67748;HTU21D;54543;50.712;6.070;2023-03-14T02:12:02;8.98;93.59
67748;HTU21D;54543;50.712;6.070;2023-03-14T02:14:32;9.06;93.74
67748;HTU21D;54543;50.712;6.070;2023-03-14T02:16:58;9.10;93.80
67748;HTU21D;54543;50.712;6.070;2023-03-14T02:22:15;9.20;91.37
67748;HTU21D;54543;50.712;6.070;2023-03-14T02:27:28;9.25;91.09
67748;HTU21D;54543;50.712;6.070;2023-03-14T02:30:12;9.27;91.34
67748;HTU21D;54543;50.712;6.070;2023-03-14T02:32:41;9.26;90.97
67748;HTU21D;54543;50.712;6.070;2023-03-14T02:35:15;9.30;91.33
67748;HTU21D;54543;50.712;6.070;2023-03-14T02:37:56;9.33;91.60
67748;HTU21D;54543;50.712;6.070;2023-03-14T02:40:22;9.32;91.22
67748;HTU21D;54543;50.712;6.070;2023-03-14T02:42:48;9.33;92.01
67748;HTU21D;54543;50.712;6.070;2023-03-14T02:47:43;9.24;92.40
67748;HTU21D;54543;50.712;6.070;2023-03-14T02:50:13;9.23;92.43
67748;HTU21D;54543;50.712;6.070;2023-03-14T02:52:39;9.23;92.65
67748;HTU21D;54543;50.712;6.070;2023-03-14T02:55:05;9.21;92.85
67748;HTU21D;54543;50.712;6.070;2023-03-14T02:57:31;9.22;92.97
67748;HTU21D;54543;50.712;6.070;2023-03-14T03:00:00;9.19;92.53
67748;HTU21D;54543;50.712;6.070;2023-03-14T03:02:29;9.18;92.81
67748;HTU21D;54543;50.712;6.070;2023-03-14T03:04:54;9.17;92.66
67748;HTU21D;54543;50.712;6.070;2023-03-14T03:07:20;9.17;92.64
67748;HTU21D;54543;50.712;6.070;2023-03-14T03:09:46;9.16;92.11
67748;HTU21D;54543;50.712;6.070;2023-03-14T03:12:11;9.19;92.29
67748;HTU21D;54543;50.712;6.070;2023-03-14T03:14:37;9.19;92.16
67748;HTU21D;54543;50.712;6.070;2023-03-14T03:17:04;9.20;92.77
67748;HTU21D;54543;50.712;6.070;2023-03-14T03:19:30;9.17;93.08
67748;HTU21D;54543;50.712;6.070;2023-03-14T03:21:56;9.17;93.29
67748;HTU21D;54543;50.712;6.070;2023-03-14T03:24:23;9.15;93.49
67748;HTU21D;54543;50.712;6.070;2023-03-14T03:26:48;9.10;93.91
67748;HTU21D;54543;50.712;6.070;2023-03-14T03:29:14;9.06;94.19
67748;HTU21D;54543;50.712;6.070;2023-03-14T03:31:39;9.03;94.56
67748;HTU21D;54543;50.712;6.070;2023-03-14T03:34:05;9.00;94.88
67748;HTU21D;54543;50.712;6.070;2023-03-14T03:36:31;8.98;95.09
67748;HTU21D;54543;50.712;6.070;2023-03-14T03:38:56;8.95;95.28
67748;HTU21D;54543;50.712;6.070;2023-03-14T03:41:22;8.93;95.68
67748;HTU21D;54543;50.712;6.070;2023-03-14T03:43:47;8.92;95.88
67748;HTU21D;54543;50.712;6.070;2023-03-14T03:46:13;8.91;95.78
67748;HTU21D;54543;50.712;6.070;2023-03-14T03:48:38;8.93;95.55
67748;HTU21D;54543;50.712;6.070;2023-03-14T03:51:04;8.92;95.65
67748;HTU21D;54543;50.712;6.070;2023-03-14T03:53:30;8.92;95.62
67748;HTU21D;54543;50.712;6.070;2023-03-14T03:55:55;8.93;95.62
67748;HTU21D;54543;50.712;6.070;2023-03-14T03:58:21;8.93;95.78
67748;HTU21D;54543;50.712;6.070;2023-03-14T04:00:46;8.93;95.73
67748;HTU21D;54543;50.712;6.070;2023-03-14T04:03:12;8.92;95.84
67748;HTU21D;54543;50.712;6.070;2023-03-14T04:05:37;8.92;95.73
67748;HTU21D;54543;50.712;6.070;2023-03-14T04:08:03;8.92;95.72
67748;HTU21D;54543;50.712;6.070;2023-03-14T04:10:29;8.93;95.53
67748;HTU21D;54543;50.712;6.070;2023-03-14T04:12:55;8.93;95.57
67748;HTU21D;54543;50.712;6.070;2023-03-14T04:15:21;8.92;95.46
67748;HTU21D;54543;50.712;6.070;2023-03-14T04:17:46;8.92;95.36
67748;HTU21D;54543;50.712;6.070;2023-03-14T04:20:12;8.95;95.26
67748;HTU21D;54543;50.712;6.070;2023-03-14T04:22:38;8.95;94.55
67748;HTU21D;54543;50.712;6.070;2023-03-14T04:25:05;8.94;94.05
67748;HTU21D;54543;50.712;6.070;2023-03-14T04:27:31;8.96;94.27
67748;HTU21D;54543;50.712;6.070;2023-03-14T04:29:56;8.94;94.17
67748;HTU21D;54543;50.712;6.070;2023-03-14T04:32:22;8.95;94.05
67748;HTU21D;54543;50.712;6.070;2023-03-14T04:34:47;8.94;93.48
67748;HTU21D;54543;50.712;6.070;2023-03-14T04:37:13;8.96;93.08
67748;HTU21D;54543;50.712;6.070;2023-03-14T04:39:39;8.98;93.40
67748;HTU21D;54543;50.712;6.070;2023-03-14T04:42:04;8.97;93.21
67748;HTU21D;54543;50.712;6.070;2023-03-14T04:44:30;8.94;93.50
67748;HTU21D;54543;50.712;6.070;2023-03-14T04:46:55;8.96;93.79
67748;HTU21D;54543;50.712;6.070;2023-03-14T04:49:21;8.95;93.40
67748;HTU21D;54543;50.712;6.070;2023-03-14T04:51:46;8.93;93.69
67748;HTU21D;54543;50.712;6.070;2023-03-14T04:54:12;8.93;93.88
67748;HTU21D;54543;50.712;6.070;2023-03-14T04:56:38;8.92;93.85
67748;HTU21D;54543;50.712;6.070;2023-03-14T04:59:04;8.92;94.02
67748;HTU21D;54543;50.712;6.070;2023-03-14T05:01:30;8.89;94.01
67748;HTU21D;54543;50.712;6.070;2023-03-14T05:03:55;8.89;94.30
67748;HTU21D;54543;50.712;6.070;2023-03-14T05:06:21;8.86;94.53
67748;HTU21D;54543;50.712;6.070;2023-03-14T05:08:46;8.86;94.48
67748;HTU21D;54543;50.712;6.070;2023-03-14T05:11:12;8.86;94.48
67748;HTU21D;54543;50.712;6.070;2023-03-14T05:13:38;8.87;94.62
67748;HTU21D;54543;50.712;6.070;2023-03-14T05:16:06;8.94;95.67
67748;HTU21D;54543;50.712;6.070;2023-03-14T05:18:32;9.11;95.59
67748;HTU21D;54543;50.712;6.070;2023-03-14T05:20:58;9.31;94.69
67748;HTU21D;54543;50.712;6.070;2023-03-14T05:23:30;9.39;93.56
67748;HTU21D;54543;50.712;6.070;2023-03-14T05:25:55;9.44;92.79
67748;HTU21D;54543;50.712;6.070;2023-03-14T05:28:21;9.42;93.11
67748;HTU21D;54543;50.712;6.070;2023-03-14T05:30:47;9.32;92.76
67748;HTU21D;54543;50.712;6.070;2023-03-14T05:33:12;9.22;93.13
67748;HTU21D;54543;50.712;6.070;2023-03-14T05:35:38;9.11;93.44
67748;HTU21D;54543;50.712;6.070;2023-03-14T05:38:03;9.02;94.07
67748;HTU21D;54543;50.712;6.070;2023-03-14T05:40:29;8.97;94.20
67748;HTU21D;54543;50.712;6.070;2023-03-14T05:42:55;8.92;94.65
67748;HTU21D;54543;50.712;6.070;2023-03-14T05:45:20;8.90;94.81
67748;HTU21D;54543;50.712;6.070;2023-03-14T05:47:46;8.88;95.11
67748;HTU21D;54543;50.712;6.070;2023-03-14T05:50:12;8.90;94.99
67748;HTU21D;54543;50.712;6.070;2023-03-14T05:52:37;8.89;95.03
67748;HTU21D;54543;50.712;6.070;2023-03-14T05:55:03;8.89;95.08
67748;HTU21D;54543;50.712;6.070;2023-03-14T05:57:29;8.89;95.20
67748;HTU21D;54543;50.712;6.070;2023-03-14T05:59:55;8.91;95.31
67748;HTU21D;54543;50.712;6.070;2023-03-14T06:02:20;8.91;95.27
67748;HTU21D;54543;50.712;6.070;2023-03-14T06:04:46;8.93;95.20
67748;HTU21D;54543;50.712;6.070;2023-03-14T06:07:11;8.97;95.30
67748;HTU21D;54543;50.712;6.070;2023-03-14T06:09:37;9.05;95.24
67748;HTU21D;54543;50.712;6.070;2023-03-14T06:12:03;9.10;94.88
67748;HTU21D;54543;50.712;6.070;2023-03-14T06:14:29;9.11;94.61
67748;HTU21D;54543;50.712;6.070;2023-03-14T06:16:54;9.10;94.39
67748;HTU21D;54543;50.712;6.070;2023-03-14T06:19:19;9.14;94.72
67748;HTU21D;54543;50.712;6.070;2023-03-14T06:21:45;9.14;94.68
67748;HTU21D;54543;50.712;6.070;2023-03-14T06:24:11;9.14;94.85
67748;HTU21D;54543;50.712;6.070;2023-03-14T06:26:36;9.15;94.81
67748;HTU21D;54543;50.712;6.070;2023-03-14T06:29:02;9.16;94.81
67748;HTU21D;54543;50.712;6.070;2023-03-14T06:31:31;9.20;94.65
67748;HTU21D;54543;50.712;6.070;2023-03-14T06:33:57;9.22;94.68
67748;HTU21D;54543;50.712;6.070;2023-03-14T06:36:23;9.26;94.68
67748;HTU21D;54543;50.712;6.070;2023-03-14T06:38:48;9.27;94.43
67748;HTU21D;54543;50.712;6.070;2023-03-14T06:41:14;9.31;94.38
67748;HTU21D;54543;50.712;6.070;2023-03-14T06:43:39;9.29;94.34
67748;HTU21D;54543;50.712;6.070;2023-03-14T06:46:05;9.31;94.14
67748;HTU21D;54543;50.712;6.070;2023-03-14T06:48:30;9.33;94.37
67748;HTU21D;54543;50.712;6.070;2023-03-14T06:50:56;9.34;94.42
67748;HTU21D;54543;50.712;6.070;2023-03-14T06:53:21;9.36;94.44
67748;HTU21D;54543;50.712;6.070;2023-03-14T06:55:47;9.35;94.70
67748;HTU21D;54543;50.712;6.070;2023-03-14T06:58:12;9.38;94.56
67748;HTU21D;54543;50.712;6.070;2023-03-14T07:00:38;9.39;94.49
67748;HTU21D;54543;50.712;6.070;2023-03-14T07:03:04;9.40;94.56
67748;HTU21D;54543;50.712;6.070;2023-03-14T07:05:29;9.41;94.70
67748;HTU21D;54543;50.712;6.070;2023-03-14T07:07:55;9.44;94.79
67748;HTU21D;54543;50.712;6.070;2023-03-14T07:10:21;9.45;94.78
67748;HTU21D;54543;50.712;6.070;2023-03-14T07:12:47;9.46;94.70
67748;HTU21D;54543;50.712;6.070;2023-03-14T07:15:12;9.49;94.42
67748;HTU21D;54543;50.712;6.070;2023-03-14T07:17:38;9.52;94.52
67748;HTU21D;54543;50.712;6.070;2023-03-14T07:20:04;9.57;94.30
67748;HTU21D;54543;50.712;6.070;2023-03-14T07:22:30;9.61;93.92
67748;HTU21D;54543;50.712;6.070;2023-03-14T07:24:56;9.65;93.86
67748;HTU21D;54543;50.712;6.070;2023-03-14T07:27:21;9.66;93.72
67748;HTU21D;54543;50.712;6.070;2023-03-14T07:29:47;9.66;93.55
67748;HTU21D;54543;50.712;6.070;2023-03-14T07:32:12;9.71;93.77
67748;HTU21D;54543;50.712;6.070;2023-03-14T07:34:41;9.75;93.99
67748;HTU21D;54543;50.712;6.070;2023-03-14T07:37:07;9.78;93.62
67748;HTU21D;54543;50.712;6.070;2023-03-14T07:39:32;9.83;93.77
67748;HTU21D;54543;50.712;6.070;2023-03-14T07:41:58;10.01;93.29
67748;HTU21D;54543;50.712;6.070;2023-03-14T07:44:23;10.19;93.59
67748;HTU21D;54543;50.712;6.070;2023-03-14T07:46:48;10.38;93.27
67748;HTU21D;54543;50.712;6.070;2023-03-14T07:49:14;10.51;91.39
67748;HTU21D;54543;50.712;6.070;2023-03-14T07:51:39;10.51;90.60
67748;HTU21D;54543;50.712;6.070;2023-03-14T07:54:05;10.52;91.17
67748;HTU21D;54543;50.712;6.070;2023-03-14T07:56:30;10.54;90.41
67748;HTU21D;54543;50.712;6.070;2023-03-14T07:58:56;10.57;90.23
67748;HTU21D;54543;50.712;6.070;2023-03-14T08:01:22;10.53;90.00
67748;HTU21D;54543;50.712;6.070;2023-03-14T08:03:47;10.42;90.79
67748;HTU21D;54543;50.712;6.070;2023-03-14T08:06:13;10.31;91.44
67748;HTU21D;54543;50.712;6.070;2023-03-14T08:08:39;10.16;92.30
67748;HTU21D;54543;50.712;6.070;2023-03-14T08:11:06;10.09;92.98
67748;HTU21D;54543;50.712;6.070;2023-03-14T08:13:34;10.03;93.49
67748;HTU21D;54543;50.712;6.070;2023-03-14T08:15:59;9.97;94.46
67748;HTU21D;54543;50.712;6.070;2023-03-14T08:18:25;9.98;94.62
67748;HTU21D;54543;50.712;6.070;2023-03-14T08:20:50;10.03;94.00
67748;HTU21D;54543;50.712;6.070;2023-03-14T08:23:16;10.06;93.91
67748;HTU21D;54543;50.712;6.070;2023-03-14T08:25:41;10.07;94.14
67748;HTU21D;54543;50.712;6.070;2023-03-14T08:28:07;10.11;93.80
67748;HTU21D;54543;50.712;6.070;2023-03-14T08:30:32;10.12;93.08
67748;HTU21D;54543;50.712;6.070;2023-03-14T08:32:58;10.12;93.70
67748;HTU21D;54543;50.712;6.070;2023-03-14T08:35:25;10.14;94.01
67748;HTU21D;54543;50.712;6.070;2023-03-14T08:37:51;10.18;93.66
67748;HTU21D;54543;50.712;6.070;2023-03-14T08:40:18;10.14;93.96
67748;HTU21D;54543;50.712;6.070;2023-03-14T08:42:44;10.12;94.17
67748;HTU21D;54543;50.712;6.070;2023-03-14T08:45:13;10.13;93.32
67748;HTU21D;54543;50.712;6.070;2023-03-14T08:47:39;10.09;93.62
67748;HTU21D;54543;50.712;6.070;2023-03-14T08:50:05;10.03;94.01
67748;HTU21D;54543;50.712;6.070;2023-03-14T08:52:31;9.84;95.43
67748;HTU21D;54543;50.712;6.070;2023-03-14T08:54:57;9.23;92.83
67748;HTU21D;54543;50.712;6.070;2023-03-14T08:57:23;8.77;95.17
67748;HTU21D;54543;50.712;6.070;2023-03-14T08:59:56;8.37;97.48
67748;HTU21D;54543;50.712;6.070;2023-03-14T09:02:23;8.06;97.11
67748;HTU21D;54543;50.712;6.070;2023-03-14T09:04:52;7.79;97.10
67748;HTU21D;54543;50.712;6.070;2023-03-14T09:07:18;7.62;99.45
67748;HTU21D;54543;50.712;6.070;2023-03-14T09:09:44;7.45;99.83
67748;HTU21D;54543;50.712;6.070;2023-03-14T09:12:10;7.22;100.17
67748;HTU21D;54543;50.712;6.070;2023-03-14T09:14:36;7.10;101.43
67748;HTU21D;54543;50.712;6.070;2023-03-14T09:17:03;6.99;102.41
67748;HTU21D;54543;50.712;6.070;2023-03-14T09:19:28;7.01;102.92
67748;HTU21D;54543;50.712;6.070;2023-03-14T09:21:54;6.97;102.99
67748;HTU21D;54543;50.712;6.070;2023-03-14T09:24:20;6.95;104.08
67748;HTU21D;54543;50.712;6.070;2023-03-14T09:26:46;6.84;104.28
67748;HTU21D;54543;50.712;6.070;2023-03-14T09:29:11;6.79;104.08
67748;HTU21D;54543;50.712;6.070;2023-03-14T09:31:37;6.69;103.99
67748;HTU21D;54543;50.712;6.070;2023-03-14T09:34:03;6.58;103.83
67748;HTU21D;54543;50.712;6.070;2023-03-14T09:36:29;6.46;103.58
67748;HTU21D;54543;50.712;6.070;2023-03-14T09:38:54;6.38;103.56
67748;HTU21D;54543;50.712;6.070;2023-03-14T09:43:50;6.25;102.81
67748;HTU21D;54543;50.712;6.070;2023-03-14T09:46:18;6.23;103.09
67748;HTU21D;54543;50.712;6.070;2023-03-14T09:48:44;6.22;103.05
67748;HTU21D;54543;50.712;6.070;2023-03-14T09:51:16;6.23;103.21
67748;HTU21D;54543;50.712;6.070;2023-03-14T09:53:45;6.26;103.11
67748;HTU21D;54543;50.712;6.070;2023-03-14T09:56:14;6.33;103.43
67748;HTU21D;54543;50.712;6.070;2023-03-14T09:58:44;6.41;103.48
67748;HTU21D;54543;50.712;6.070;2023-03-14T10:01:15;6.43;103.44
67748;HTU21D;54543;50.712;6.070;2023-03-14T10:03:42;6.43;103.56
67748;HTU21D;54543;50.712;6.070;2023-03-14T10:06:13;6.49;103.63
67748;HTU21D;54543;50.712;6.070;2023-03-14T10:08:41;6.51;103.52
67748;HTU21D;54543;50.712;6.070;2023-03-14T10:11:16;6.55;103.12
67748;HTU21D;54543;50.712;6.070;2023-03-14T10:16:14;6.63;103.46
67748;HTU21D;54543;50.712;6.070;2023-03-14T10:18:44;6.68;103.51
67748;HTU21D;54543;50.712;6.070;2023-03-14T10:21:30;6.72;103.50
67748;HTU21D;54543;50.712;6.070;2023-03-14T10:24:51;6.75;103.51
67748;HTU21D;54543;50.712;6.070;2023-03-14T10:29:31;6.67;102.66
67748;HTU21D;54543;50.712;6.070;2023-03-14T10:32:03;6.56;101.89
67748;HTU21D;54543;50.712;6.070;2023-03-14T10:34:31;6.55;102.38
67748;HTU21D;54543;50.712;6.070;2023-03-14T10:37:04;6.57;102.24
67748;HTU21D;54543;50.712;6.070;2023-03-14T10:39:52;6.61;102.46
67748;HTU21D;54543;50.712;6.070;2023-03-14T10:42:29;6.63;102.33
67748;HTU21D;54543;50.712;6.070;2023-03-14T10:45:04;6.64;102.00
67748;HTU21D;54543;50.712;6.070;2023-03-14T10:47:33;6.61;101.76
67748;HTU21D;54543;50.712;6.070;2023-03-14T10:50:27;6.54;101.52
67748;HTU21D;54543;50.712;6.070;2023-03-14T10:52:55;6.55;101.12
67748;HTU21D;54543;50.712;6.070;2023-03-14T10:55:21;6.56;100.91
67748;HTU21D;54543;50.712;6.070;2023-03-14T10:57:46;6.43;106.41
67748;HTU21D;54543;50.712;6.070;2023-03-14T11:00:17;6.35;107.88
67748;HTU21D;54543;50.712;6.070;2023-03-14T11:03:08;6.39;109.15
67748;HTU21D;54543;50.712;6.070;2023-03-14T11:05:59;6.38;109.08
67748;HTU21D;54543;50.712;6.070;2023-03-14T11:08:52;6.34;108.04
67748;HTU21D;54543;50.712;6.070;2023-03-14T11:11:27;6.26;104.16
67748;HTU21D;54543;50.712;6.070;2023-03-14T11:14:14;6.22;103.34
67748;HTU21D;54543;50.712;6.070;2023-03-14T11:16:57;6.13;103.01
67748;HTU21D;54543;50.712;6.070;2023-03-14T11:22:46;6.17;103.48
67748;HTU21D;54543;50.712;6.070;2023-03-14T11:27:45;6.20;102.88
67748;HTU21D;54543;50.712;6.070;2023-03-14T11:36:09;5.90;101.78
67748;HTU21D;54543;50.712;6.070;2023-03-14T11:38:50;5.75;101.50
67748;HTU21D;54543;50.712;6.070;2023-03-14T11:41:27;5.67;101.46
67748;HTU21D;54543;50.712;6.070;2023-03-14T11:43:56;5.61;101.75
67748;HTU21D;54543;50.712;6.070;2023-03-14T11:49:01;5.60;101.74
67748;HTU21D;54543;50.712;6.070;2023-03-14T11:51:39;5.62;101.97
67748;HTU21D;54543;50.712;6.070;2023-03-14T11:54:16;5.60;101.52
67748;HTU21D;54543;50.712;6.070;2023-03-14T11:56:47;5.57;101.24
67748;HTU21D;54543;50.712;6.070;2023-03-14T11:59:21;5.54;101.25
67748;HTU21D;54543;50.712;6.070;2023-03-14T12:04:50;5.41;100.48
67748;HTU21D;54543;50.712;6.070;2023-03-14T12:10:17;5.35;101.19
67748;HTU21D;54543;50.712;6.070;2023-03-14T12:12:43;5.37;100.83
67748;HTU21D;54543;50.712;6.070;2023-03-14T12:15:20;5.34;101.21
67748;HTU21D;54543;50.712;6.070;2023-03-14T12:17:46;5.42;101.37
67748;HTU21D;54543;50.712;6.070;2023-03-14T12:20:19;5.41;101.34
67748;HTU21D;54543;50.712;6.070;2023-03-14T12:22:48;5.39;101.24
67748;HTU21D;54543;50.712;6.070;2023-03-14T12:25:15;5.34;100.73
67748;HTU21D;54543;50.712;6.070;2023-03-14T12:35:51;5.09;101.67
67748;HTU21D;54543;50.712;6.070;2023-03-14T12:41:35;4.65;102.14
67748;HTU21D;54543;50.712;6.070;2023-03-14T12:47:03;4.21;103.01
67748;HTU21D;54543;50.712;6.070;2023-03-14T12:49:39;4.01;102.99
67748;HTU21D;54543;50.712;6.070;2023-03-14T12:52:13;3.99;103.16
67748;HTU21D;54543;50.712;6.070;2023-03-14T12:54:57;4.04;103.28
67748;HTU21D;54543;50.712;6.070;2023-03-14T12:57:43;4.13;103.46
67748;HTU21D;54543;50.712;6.070;2023-03-14T13:00:44;4.26;103.58
67748;HTU21D;54543;50.712;6.070;2023-03-14T13:03:24;4.34;103.50
67748;HTU21D;54543;50.712;6.070;2023-03-14T13:06:00;4.50;103.68
67748;HTU21D;54543;50.712;6.070;2023-03-14T13:08:41;4.71;103.86
67748;HTU21D;54543;50.712;6.070;2023-03-14T13:11:19;4.86;103.90
67748;HTU21D;54543;50.712;6.070;2023-03-14T13:13:47;5.00;104.12
67748;HTU21D;54543;50.712;6.070;2023-03-14T13:16:20;5.07;104.03
67748;HTU21D;54543;50.712;6.070;2023-03-14T13:18:48;5.07;103.57
67748;HTU21D;54543;50.712;6.070;2023-03-14T13:21:19;5.01;103.13
67748;HTU21D;54543;50.712;6.070;2023-03-14T13:23:59;5.02;103.08
67748;HTU21D;54543;50.712;6.070;2023-03-14T13:26:39;5.05;102.85
67748;HTU21D;54543;50.712;6.070;2023-03-14T13:29:16;5.00;102.89
67748;HTU21D;54543;50.712;6.070;2023-03-14T13:31:46;4.97;102.93
67748;HTU21D;54543;50.712;6.070;2023-03-14T13:34:12;4.92;102.92
67748;HTU21D;54543;50.712;6.070;2023-03-14T13:36:38;4.97;103.02
67748;HTU21D;54543;50.712;6.070;2023-03-14T13:39:09;5.05;103.09
67748;HTU21D;54543;50.712;6.070;2023-03-14T13:41:38;5.11;103.12
67748;HTU21D;54543;50.712;6.070;2023-03-14T13:44:07;5.11;102.94
67748;HTU21D;54543;50.712;6.070;2023-03-14T13:46:34;5.04;102.72
67748;HTU21D;54543;50.712;6.070;2023-03-14T13:49:12;4.92;102.26
67748;HTU21D;54543;50.712;6.070;2023-03-14T13:51:39;4.73;101.91
67748;HTU21D;54543;50.712;6.070;2023-03-14T13:54:14;4.61;101.87
67748;HTU21D;54543;50.712;6.070;2023-03-14T13:56:40;4.54;101.84
67748;HTU21D;54543;50.712;6.070;2023-03-14T13:59:21;4.44;101.79
67748;HTU21D;54543;50.712;6.070;2023-03-14T14:01:47;4.26;101.16
67748;HTU21D;54543;50.712;6.070;2023-03-14T14:04:18;4.16;101.70
67748;HTU21D;54543;50.712;6.070;2023-03-14T14:09:27;4.19;102.24
67748;HTU21D;54543;50.712;6.070;2023-03-14T14:12:38;4.19;102.31
67748;HTU21D;54543;50.712;6.070;2023-03-14T14:15:06;4.17;102.22
67748;HTU21D;54543;50.712;6.070;2023-03-14T14:17:38;4.08;101.82
67748;HTU21D;54543;50.712;6.070;2023-03-14T14:20:06;3.90;101.54
67748;HTU21D;54543;50.712;6.070;2023-03-14T14:22:33;3.82;101.69
67748;HTU21D;54543;50.712;6.070;2023-03-14T14:25:00;3.82;101.87
67748;HTU21D;54543;50.712;6.070;2023-03-14T14:27:36;3.85;102.09
67748;HTU21D;54543;50.712;6.070;2023-03-14T14:32:38;3.91;102.14
67748;HTU21D;54543;50.712;6.070;2023-03-14T14:35:04;3.91;102.14
67748;HTU21D;54543;50.712;6.070;2023-03-14T14:37:32;3.92;102.17
67748;HTU21D;54543;50.712;6.070;2023-03-14T14:40:08;3.98;102.24
67748;HTU21D;54543;50.712;6.070;2023-03-14T14:42:40;4.06;102.36
67748;HTU21D;54543;50.712;6.070;2023-03-14T14:45:14;4.13;102.42
67748;HTU21D;54543;50.712;6.070;2023-03-14T14:50:30;4.21;102.41
67748;HTU21D;54543;50.712;6.070;2023-03-14T14:52:58;4.22;102.34
67748;HTU21D;54543;50.712;6.070;2023-03-14T14:55:31;4.24;102.36
67748;HTU21D;54543;50.712;6.070;2023-03-14T14:57:57;4.24;102.34
67748;HTU21D;54543;50.712;6.070;2023-03-14T15:00:25;4.29;102.35
67748;HTU21D;54543;50.712;6.070;2023-03-14T15:02:53;4.31;102.41
67748;HTU21D;54543;50.712;6.070;2023-03-14T15:05:25;4.32;102.38
67748;HTU21D;54543;50.712;6.070;2023-03-14T15:07:52;4.35;102.30
67748;HTU21D;54543;50.712;6.070;2023-03-14T15:10:20;4.37;102.27
67748;HTU21D;54543;50.712;6.070;2023-03-14T15:12:46;4.45;102.35
67748;HTU21D;54543;50.712;6.070;2023-03-14T15:15:14;4.49;102.36
67748;HTU21D;54543;50.712;6.070;2023-03-14T15:17:40;4.51;102.32
67748;HTU21D;54543;50.712;6.070;2023-03-14T15:20:10;4.54;102.35
67748;HTU21D;54543;50.712;6.070;2023-03-14T15:22:39;4.58;102.32
67748;HTU21D;54543;50.712;6.070;2023-03-14T15:25:04;4.61;102.36
67748;HTU21D;54543;50.712;6.070;2023-03-14T15:27:30;4.65;102.23
67748;HTU21D;54543;50.712;6.070;2023-03-14T15:29:56;4.66;102.27
67748;HTU21D;54543;50.712;6.070;2023-03-14T15:32:22;4.67;102.22
67748;HTU21D;54543;50.712;6.070;2023-03-14T15:34:47;4.73;102.29
67748;HTU21D;54543;50.712;6.070;2023-03-14T15:37:15;4.73;102.25
67748;HTU21D;54543;50.712;6.070;2023-03-14T15:39:44;4.73;102.01
67748;HTU21D;54543;50.712;6.070;2023-03-14T15:42:10;4.65;101.89
67748;HTU21D;54543;50.712;6.070;2023-03-14T15:44:36;4.56;101.86
67748;HTU21D;54543;50.712;6.070;2023-03-14T15:47:02;4.49;101.76
67748;HTU21D;54543;50.712;6.070;2023-03-14T15:49:28;4.38;101.56
67748;HTU21D;54543;50.712;6.070;2023-03-14T15:51:53;4.28;101.39
67748;HTU21D;54543;50.712;6.070;2023-03-14T15:54:19;4.20;101.48
67748;HTU21D;54543;50.712;6.070;2023-03-14T15:56:44;4.14;101.47
67748;HTU21D;54543;50.712;6.070;2023-03-14T15:59:10;4.07;101.45
67748;HTU21D;54543;50.712;6.070;2023-03-14T16:01:36;4.01;101.39
67748;HTU21D;54543;50.712;6.070;2023-03-14T16:04:01;3.92;101.30
67748;HTU21D;54543;50.712;6.070;2023-03-14T16:06:28;3.80;101.33
67748;HTU21D;54543;50.712;6.070;2023-03-14T16:08:54;3.76;101.57
67748;HTU21D;54543;50.712;6.070;2023-03-14T16:11:19;3.72;101.67
67748;HTU21D;54543;50.712;6.070;2023-03-14T16:13:45;3.71;101.81
67748;HTU21D;54543;50.712;6.070;2023-03-14T16:16:11;3.70;101.93
67748;HTU21D;54543;50.712;6.070;2023-03-14T16:18:40;3.65;101.84
67748;HTU21D;54543;50.712;6.070;2023-03-14T16:21:11;3.63;101.85
67748;HTU21D;54543;50.712;6.070;2023-03-14T16:23:37;3.64;101.83
67748;HTU21D;54543;50.712;6.070;2023-03-14T16:26:04;3.63;101.83
67748;HTU21D;54543;50.712;6.070;2023-03-14T16:28:30;3.62;101.86
67748;HTU21D;54543;50.712;6.070;2023-03-14T16:31:03;3.62;101.91
67748;HTU21D;54543;50.712;6.070;2023-03-14T16:33:29;3.61;101.90
67748;HTU21D;54543;50.712;6.070;2023-03-14T16:36:00;3.60;101.92
67748;HTU21D;54543;50.712;6.070;2023-03-14T16:38:30;3.59;101.86